Castro Verd, Portugal
Current Conditions -  °F | °C
As of 6:00 AM on Thursday 23 Oct 2014 (Local Time) from LPBJ Reporting Station
Clear Clear  
Wind Chill: 16°   Ceiling: Unl
Heat Index: 16°   Visibility: 6mi
Dew Point: 10°   Wind: 7mph
Humidity: 68%   Direction: 80°E
Pressure: 30.18"   Gusts: NA
Location:  37.7°N, 8.08°W
Report Text: LPBJ 230500Z 08006KT CAVOK 16/10 Q1022
Loading
Personal Weather Stations






























Interactive Weather Map
Tropical Storm Tracking
New forecast layout! Learn more

10-Day Weather Forecast

Advertisements
Track Severe Weather on mobile